createdAt,value
2018-03-14T00:01:21.662Z,19.10
2018-03-14T00:03:48.338Z,17.73
2018-03-14T00:06:15.037Z,19.63
2018-03-14T00:08:41.721Z,19.17
2018-03-14T00:11:08.424Z,16.30
2018-03-14T00:13:35.106Z,17.23
2018-03-14T00:16:01.948Z,17.17
2018-03-14T00:18:28.637Z,17.73
2018-03-14T00:20:55.353Z,15.57
2018-03-14T00:23:22.049Z,16.93
2018-03-14T00:25:48.739Z,19.00
2018-03-14T00:28:15.437Z,17.33
2018-03-14T00:30:42.120Z,17.43
2018-03-14T00:33:08.833Z,18.13
2018-03-14T00:35:35.716Z,18.77
2018-03-14T00:38:02.421Z,21.20
2018-03-14T00:40:29.106Z,20.47
2018-03-14T00:42:55.793Z,20.03
2018-03-14T00:45:22.508Z,19.83
2018-03-14T00:47:49.200Z,20.70
2018-03-14T00:50:16.007Z,20.30
2018-03-14T00:52:42.685Z,18.87
2018-03-14T00:55:09.533Z,19.00
2018-03-14T00:57:36.217Z,17.83
2018-03-14T01:00:03.098Z,19.30
2018-03-14T01:02:29.898Z,18.03
2018-03-14T01:04:56.593Z,16.50
2018-03-14T01:07:23.305Z,18.17
2018-03-14T01:09:49.992Z,18.43
2018-03-14T01:12:16.697Z,18.57
2018-03-14T01:14:43.381Z,17.03
2018-03-14T01:17:10.081Z,16.30
2018-03-14T01:19:36.776Z,18.03
2018-03-14T01:22:03.474Z,16.80
2018-03-14T01:24:30.159Z,17.60
2018-03-14T01:26:56.865Z,17.30
2018-03-14T01:29:23.548Z,17.33
2018-03-14T01:31:50.249Z,18.30
2018-03-14T01:34:16.976Z,17.97
2018-03-14T01:36:43.656Z,16.93
2018-03-14T01:39:10.361Z,18.20
2018-03-14T01:41:37.042Z,18.37
2018-03-14T01:44:03.737Z,18.87
2018-03-14T01:46:30.426Z,18.30
2018-03-14T01:48:57.129Z,17.93
2018-03-14T01:51:23.805Z,19.47
2018-03-14T01:53:50.512Z,18.07
2018-03-14T01:56:17.410Z,18.87
2018-03-14T01:58:44.129Z,20.23
2018-03-14T02:01:10.908Z,20.50
2018-03-14T02:03:37.630Z,19.30
2018-03-14T02:06:04.329Z,21.27
2018-03-14T02:08:31.005Z,20.20
2018-03-14T02:10:57.761Z,19.80
2018-03-14T02:13:24.442Z,19.73
2018-03-14T02:15:51.181Z,19.20
2018-03-14T02:18:17.870Z,21.63
2018-03-14T02:20:44.570Z,19.77
2018-03-14T02:23:11.244Z,20.73
2018-03-14T02:25:37.981Z,21.70
2018-03-14T02:28:04.670Z,20.80
2018-03-14T02:30:31.392Z,20.97
2018-03-14T02:32:58.120Z,22.67
2018-03-14T02:35:25.039Z,22.83
2018-03-14T02:37:51.725Z,22.90
2018-03-14T02:40:18.401Z,21.70
2018-03-14T02:42:45.101Z,22.20
2018-03-14T02:45:11.781Z,23.37
2018-03-14T02:47:38.645Z,22.63
2018-03-14T02:50:05.345Z,24.07
2018-03-14T02:52:32.061Z,23.80
2018-03-14T02:54:58.792Z,23.53
2018-03-14T02:57:25.468Z,25.03
2018-03-14T02:59:52.165Z,24.70
2018-03-14T03:02:18.870Z,24.77
2018-03-14T03:04:45.560Z,23.90
2018-03-14T03:07:12.394Z,24.27
2018-03-14T03:09:39.152Z,22.07
2018-03-14T03:12:05.913Z,23.20
2018-03-14T03:14:32.589Z,24.43
2018-03-14T03:16:59.360Z,23.40
2018-03-14T03:19:26.044Z,24.50
2018-03-14T03:21:52.885Z,24.80
2018-03-14T03:24:19.578Z,23.57
2018-03-14T03:26:46.278Z,24.43
2018-03-14T03:29:12.985Z,25.20
2018-03-14T03:31:39.855Z,25.37
2018-03-14T03:34:06.557Z,24.83
2018-03-14T03:36:33.248Z,25.87
2018-03-14T03:38:59.960Z,25.40
2018-03-14T03:41:26.734Z,25.67
2018-03-14T03:43:53.437Z,25.37
2018-03-14T03:46:20.132Z,24.63
2018-03-14T03:48:46.814Z,26.10
2018-03-14T03:51:13.552Z,26.47
2018-03-14T03:53:40.273Z,26.13
2018-03-14T03:56:06.945Z,26.40
2018-03-14T03:58:33.625Z,29.40
2018-03-14T04:01:00.405Z,25.57
2018-03-14T04:03:27.096Z,26.20
2018-03-14T04:05:53.802Z,27.97
2018-03-14T04:08:20.566Z,27.20
2018-03-14T04:10:47.309Z,28.73
2018-03-14T04:13:14.014Z,29.00
2018-03-14T04:15:40.770Z,27.03
2018-03-14T04:18:07.476Z,27.77
2018-03-14T04:20:34.173Z,30.23
2018-03-14T04:23:00.870Z,29.30
2018-03-14T04:25:27.553Z,29.17
2018-03-14T04:27:54.244Z,29.53
2018-03-14T04:30:21.203Z,29.20
2018-03-14T04:32:47.885Z,27.40
2018-03-14T04:35:14.564Z,30.20
2018-03-14T04:37:41.268Z,28.13
2018-03-14T04:40:07.968Z,28.97
2018-03-14T04:42:34.744Z,30.80
2018-03-14T04:45:01.430Z,33.87
2018-03-14T04:47:28.096Z,30.67
2018-03-14T04:49:54.797Z,29.07
2018-03-14T04:52:21.477Z,32.03
2018-03-14T04:54:48.201Z,31.83
2018-03-14T04:57:15.841Z,26.13
2018-03-14T04:59:42.549Z,28.70
2018-03-14T05:02:09.233Z,30.77
2018-03-14T05:04:35.932Z,30.63
2018-03-14T05:07:02.630Z,31.90
2018-03-14T05:09:29.335Z,30.33
2018-03-14T05:11:56.216Z,30.30
2018-03-14T05:14:22.919Z,28.80
2018-03-14T05:16:49.620Z,27.40
2018-03-14T05:19:16.297Z,27.60
2018-03-14T05:21:43.014Z,30.70
2018-03-14T05:24:09.737Z,28.80
2018-03-14T05:26:36.429Z,28.93
2018-03-14T05:29:03.322Z,32.20
2018-03-14T05:31:29.996Z,29.03
2018-03-14T05:33:56.855Z,29.00
2018-03-14T05:36:23.557Z,28.77
2018-03-14T05:38:50.502Z,29.40
2018-03-14T05:41:17.200Z,29.70
2018-03-14T05:43:43.961Z,25.10
2018-03-14T05:46:10.661Z,25.97
2018-03-14T05:48:37.506Z,20.97
2018-03-14T05:51:04.189Z,22.50
2018-03-14T05:53:31.246Z,22.17
2018-03-14T05:55:57.926Z,23.20
2018-03-14T05:58:24.609Z,22.70
2018-03-14T06:00:51.290Z,23.63
2018-03-14T06:03:18.749Z,22.83
2018-03-14T06:05:45.692Z,25.70
2018-03-14T06:08:13.042Z,23.80
2018-03-14T06:10:39.741Z,24.77
2018-03-14T06:13:06.533Z,22.90
2018-03-14T06:15:33.228Z,23.53
2018-03-14T06:17:59.920Z,21.27
2018-03-14T06:20:26.668Z,25.43
2018-03-14T06:22:53.378Z,25.67
2018-03-14T06:25:20.081Z,27.03
2018-03-14T06:27:46.874Z,28.80
2018-03-14T06:30:13.569Z,28.40
2018-03-14T06:32:40.260Z,30.40
2018-03-14T06:35:06.961Z,28.90
2018-03-14T06:37:33.668Z,31.40
2018-03-14T06:40:00.403Z,31.53
2018-03-14T06:42:27.154Z,29.90
2018-03-14T06:44:53.896Z,29.47
2018-03-14T06:47:20.598Z,31.20
2018-03-14T06:49:47.296Z,30.73
2018-03-14T06:52:13.985Z,30.90
2018-03-14T06:54:40.698Z,29.73
2018-03-14T06:57:07.395Z,30.10
2018-03-14T06:59:40.012Z,28.63
2018-03-14T07:02:12.587Z,30.67
2018-03-14T07:04:39.354Z,29.17
2018-03-14T07:07:06.058Z,30.67
2018-03-14T07:09:32.754Z,27.63
2018-03-14T07:11:59.535Z,28.47
2018-03-14T07:14:26.226Z,28.10
2018-03-14T07:16:52.922Z,26.30
2018-03-14T07:19:19.617Z,26.50
2018-03-14T07:21:46.312Z,26.90
2018-03-14T07:24:13.094Z,28.77
2018-03-14T07:26:39.814Z,29.90
2018-03-14T07:29:06.516Z,31.60
2018-03-14T07:31:33.229Z,31.30
2018-03-14T07:33:59.925Z,33.80
2018-03-14T07:36:26.649Z,33.50
2018-03-14T07:38:53.330Z,32.17
2018-03-14T07:41:20.023Z,31.67
2018-03-14T07:43:46.775Z,34.50
2018-03-14T07:46:14.210Z,34.47
2018-03-14T07:48:40.917Z,36.00
2018-03-14T07:51:07.609Z,38.10
2018-03-14T07:53:34.450Z,38.10
2018-03-14T07:56:01.134Z,42.03
2018-03-14T07:58:27.845Z,43.30
2018-03-14T08:00:54.528Z,40.13
2018-03-14T08:03:21.233Z,43.40
2018-03-14T08:05:47.950Z,39.37
2018-03-14T08:08:14.653Z,37.37
2018-03-14T08:10:41.345Z,36.80
2018-03-14T08:13:08.120Z,35.97
2018-03-14T08:15:34.841Z,35.00
2018-03-14T08:18:01.520Z,33.27
2018-03-14T08:20:28.241Z,30.73
2018-03-14T08:22:54.993Z,35.77
2018-03-14T08:25:21.674Z,32.13
2018-03-14T08:27:48.396Z,32.37
2018-03-14T08:30:15.060Z,29.60
2018-03-14T08:32:41.821Z,28.83
2018-03-14T08:35:08.516Z,30.80
2018-03-14T08:37:35.289Z,29.37
2018-03-14T08:40:02.013Z,29.33
2018-03-14T08:42:28.719Z,28.33
2018-03-14T08:44:55.414Z,34.47
2018-03-14T08:47:22.152Z,29.63
2018-03-14T08:49:48.862Z,31.03
2018-03-14T08:52:15.654Z,31.90
2018-03-14T08:54:42.445Z,29.40
2018-03-14T08:57:09.213Z,28.87
2018-03-14T08:59:35.927Z,29.57
2018-03-14T09:02:02.833Z,29.20
2018-03-14T09:04:29.552Z,29.30
2018-03-14T09:06:56.241Z,30.47
2018-03-14T09:09:22.961Z,26.37
2018-03-14T09:11:49.660Z,27.80
2018-03-14T09:14:16.352Z,29.10
2018-03-14T09:16:43.047Z,29.47
2018-03-14T09:19:09.870Z,30.27
2018-03-14T09:21:36.585Z,26.60
2018-03-14T09:24:03.264Z,28.97
2018-03-14T09:26:29.962Z,28.20
2018-03-14T09:28:56.663Z,27.23
2018-03-14T09:31:23.462Z,27.93
2018-03-14T09:33:50.227Z,24.00
2018-03-14T09:36:16.930Z,22.83
2018-03-14T09:38:43.605Z,22.23
2018-03-14T09:41:10.292Z,19.77
2018-03-14T09:43:36.981Z,13.50
2018-03-14T09:46:03.727Z,10.40
2018-03-14T09:48:30.390Z,14.87
2018-03-14T09:50:57.086Z,14.70
2018-03-14T09:53:23.810Z,10.97
2018-03-14T09:55:50.517Z,15.57
2018-03-14T09:58:17.238Z,14.00
2018-03-14T10:00:43.970Z,15.97
2018-03-14T10:03:10.830Z,17.33
2018-03-14T10:05:37.525Z,16.33
2018-03-14T10:08:04.208Z,12.00
2018-03-14T10:10:30.917Z,10.03
2018-03-14T10:12:57.588Z,11.13
2018-03-14T10:15:24.280Z,8.27
2018-03-14T10:17:50.948Z,10.10
2018-03-14T10:20:17.652Z,13.87
2018-03-14T10:22:44.535Z,13.50
2018-03-14T10:25:11.229Z,15.13
2018-03-14T10:27:37.922Z,13.90
2018-03-14T10:30:04.616Z,12.83
2018-03-14T10:32:31.313Z,12.57
2018-03-14T10:34:58.010Z,10.57
2018-03-14T10:37:24.840Z,10.73
2018-03-14T10:39:51.538Z,11.07
2018-03-14T10:42:18.352Z,9.47
2018-03-14T10:44:45.061Z,8.37
2018-03-14T10:47:11.803Z,10.97
2018-03-14T10:49:38.590Z,11.27
2018-03-14T10:52:05.285Z,7.13
2018-03-14T10:54:31.957Z,6.27
2018-03-14T10:56:58.675Z,5.80
2018-03-14T10:59:25.370Z,5.70
2018-03-14T11:01:52.093Z,4.27
2018-03-14T11:04:18.776Z,4.60
2018-03-14T11:06:45.508Z,5.20
2018-03-14T11:09:12.206Z,3.13
2018-03-14T11:11:38.878Z,2.43
2018-03-14T11:14:05.676Z,3.63
2018-03-14T11:16:32.362Z,6.00
2018-03-14T11:18:59.104Z,7.23
2018-03-14T11:21:25.834Z,8.00
2018-03-14T11:23:52.521Z,7.80
2018-03-14T11:26:19.256Z,4.97
2018-03-14T11:28:45.958Z,5.33
2018-03-14T11:31:12.637Z,7.90
2018-03-14T11:33:39.321Z,8.97
2018-03-14T11:36:06.175Z,7.53
2018-03-14T11:38:32.960Z,8.50
2018-03-14T11:40:59.647Z,7.30
2018-03-14T11:43:26.449Z,9.03
2018-03-14T11:45:53.171Z,8.77
2018-03-14T11:48:19.849Z,8.87
2018-03-14T11:50:46.538Z,9.70
2018-03-14T11:53:13.231Z,9.63
2018-03-14T11:55:39.934Z,9.83
2018-03-14T11:58:06.625Z,9.50
2018-03-14T12:00:33.577Z,9.20
2018-03-14T12:03:00.395Z,9.07
2018-03-14T12:05:27.064Z,8.43
2018-03-14T12:07:53.741Z,8.37
2018-03-14T12:10:20.486Z,8.77
2018-03-14T12:12:47.281Z,8.87
2018-03-14T12:15:13.983Z,8.30
2018-03-14T12:17:40.718Z,8.87
2018-03-14T12:20:07.446Z,8.40
2018-03-14T12:22:34.122Z,9.03
2018-03-14T12:25:00.825Z,8.40
2018-03-14T12:27:27.493Z,8.20
2018-03-14T12:29:54.229Z,8.57
2018-03-14T12:32:20.994Z,8.70
2018-03-14T12:34:47.664Z,8.70
2018-03-14T12:37:14.510Z,7.57
2018-03-14T12:39:41.232Z,7.50
2018-03-14T12:42:07.909Z,7.00
2018-03-14T12:44:34.578Z,7.40
2018-03-14T12:47:01.298Z,6.90
2018-03-14T12:49:27.987Z,6.60
2018-03-14T12:51:54.662Z,6.40
2018-03-14T12:54:21.369Z,7.20
2018-03-14T12:56:48.062Z,7.03
2018-03-14T12:59:14.758Z,6.30
2018-03-14T13:01:41.423Z,6.90
2018-03-14T13:04:08.165Z,5.83
2018-03-14T13:06:34.846Z,6.60
2018-03-14T13:09:01.562Z,7.87
2018-03-14T13:11:28.335Z,7.80
2018-03-14T13:13:55.485Z,7.03
2018-03-14T13:16:22.161Z,7.63
2018-03-14T13:18:48.936Z,7.47
2018-03-14T13:21:15.598Z,7.23
2018-03-14T13:23:42.285Z,8.20
2018-03-14T13:26:09.003Z,7.93
2018-03-14T13:28:35.701Z,7.40
2018-03-14T13:31:02.507Z,8.57
2018-03-14T13:33:29.190Z,8.87
2018-03-14T13:35:55.895Z,8.30
2018-03-14T13:38:22.647Z,9.10
2018-03-14T13:40:49.384Z,8.50
2018-03-14T13:43:16.185Z,7.53
2018-03-14T13:45:42.883Z,9.17
2018-03-14T13:48:09.712Z,8.67
2018-03-14T13:50:36.466Z,9.20
2018-03-14T13:53:03.200Z,8.07
2018-03-14T13:55:29.873Z,7.93
2018-03-14T13:57:56.592Z,8.10
2018-03-14T14:00:23.260Z,8.27
2018-03-14T14:02:49.941Z,7.60
2018-03-14T14:05:16.680Z,8.37
2018-03-14T14:07:43.392Z,8.13
2018-03-14T14:10:10.078Z,8.40
2018-03-14T14:12:36.766Z,9.17
2018-03-14T14:15:03.557Z,7.43
2018-03-14T14:17:30.450Z,7.07
2018-03-14T14:19:57.126Z,8.10
2018-03-14T14:22:23.795Z,8.60
2018-03-14T14:24:50.599Z,9.70
2018-03-14T14:27:17.346Z,8.87
2018-03-14T14:29:44.103Z,8.73
2018-03-14T14:32:10.820Z,8.03
2018-03-14T14:34:37.667Z,8.37
2018-03-14T14:37:04.376Z,9.00
2018-03-14T14:39:31.112Z,9.10
2018-03-14T14:41:57.990Z,10.07
2018-03-14T14:44:24.681Z,8.03
2018-03-14T14:46:51.395Z,8.33
2018-03-14T14:49:18.116Z,8.27
2018-03-14T14:51:44.818Z,8.57
2018-03-14T14:54:11.534Z,8.70
2018-03-14T14:56:38.210Z,8.33
2018-03-14T14:59:04.900Z,7.90
2018-03-14T15:01:31.701Z,9.17
2018-03-14T15:03:58.401Z,8.40
2018-03-14T15:06:25.236Z,7.20
2018-03-14T15:08:51.927Z,8.43
2018-03-14T15:11:18.613Z,8.40
2018-03-14T15:13:45.329Z,8.27
2018-03-14T15:16:12.032Z,8.40
2018-03-14T15:18:38.878Z,8.00
2018-03-14T15:21:05.651Z,8.80
2018-03-14T15:23:32.365Z,7.50
2018-03-14T15:25:59.253Z,7.67
2018-03-14T15:28:25.979Z,10.00
2018-03-14T15:30:52.700Z,9.13
2018-03-14T15:33:19.391Z,9.37
2018-03-14T15:35:46.386Z,8.90
2018-03-14T15:38:13.069Z,9.13
2018-03-14T15:40:40.472Z,9.23
2018-03-14T15:43:07.307Z,8.43
2018-03-14T15:45:33.988Z,9.43
2018-03-14T15:48:00.702Z,9.10
2018-03-14T15:50:27.390Z,8.80
2018-03-14T15:52:54.094Z,8.10
2018-03-14T15:55:20.843Z,9.37
2018-03-14T15:57:47.583Z,8.70
2018-03-14T16:00:14.282Z,8.27
2018-03-14T16:02:40.997Z,9.50
2018-03-14T16:05:07.686Z,9.00
2018-03-14T16:07:34.388Z,9.03
2018-03-14T16:10:01.115Z,9.87
2018-03-14T16:12:27.807Z,11.27
2018-03-14T16:14:54.501Z,9.43
2018-03-14T16:17:21.237Z,10.20
2018-03-14T16:19:47.929Z,9.10
2018-03-14T16:22:14.624Z,10.13
2018-03-14T16:24:41.517Z,9.57
2018-03-14T16:27:08.346Z,10.03
2018-03-14T16:29:35.051Z,8.73
2018-03-14T16:32:01.765Z,9.33
2018-03-14T16:34:28.476Z,9.40
2018-03-14T16:36:55.228Z,9.13
2018-03-14T16:39:22.074Z,10.27
2018-03-14T16:41:48.778Z,9.63
2018-03-14T16:44:15.740Z,9.50
2018-03-14T16:46:42.495Z,9.37
2018-03-14T16:49:09.196Z,9.30
2018-03-14T16:51:35.914Z,10.20
2018-03-14T16:54:02.800Z,9.10
2018-03-14T16:56:29.511Z,9.37
2018-03-14T16:58:56.209Z,8.97
2018-03-14T17:01:22.910Z,9.63
2018-03-14T17:03:49.627Z,9.27
2018-03-14T17:06:16.318Z,9.93
2018-03-14T17:08:43.042Z,9.53
2018-03-14T17:11:09.804Z,8.77
2018-03-14T17:13:36.609Z,9.23
2018-03-14T17:16:03.391Z,8.57
2018-03-14T17:18:30.123Z,9.23
2018-03-14T17:20:56.828Z,10.07
2018-03-14T17:23:23.530Z,8.70
2018-03-14T17:25:50.296Z,8.63
2018-03-14T17:28:16.986Z,9.83
2018-03-14T17:30:43.703Z,7.60
2018-03-14T17:33:10.433Z,9.20
2018-03-14T17:35:37.110Z,9.83
2018-03-14T17:38:03.829Z,9.87
2018-03-14T17:40:30.554Z,8.70
2018-03-14T17:42:57.235Z,8.40
2018-03-14T17:45:24.017Z,10.07
2018-03-14T17:47:50.737Z,10.77
2018-03-14T17:50:17.425Z,19.93
2018-03-14T17:52:44.280Z,23.77
2018-03-14T17:55:10.997Z,18.07
2018-03-14T17:57:37.704Z,7.80
2018-03-14T18:00:04.414Z,8.27
2018-03-14T18:02:31.091Z,8.13
2018-03-14T18:04:59.798Z,9.00
2018-03-14T18:07:26.592Z,9.20
2018-03-14T18:09:53.304Z,7.57
2018-03-14T18:12:20.013Z,8.30
2018-03-14T18:14:46.696Z,9.20
2018-03-14T18:17:13.385Z,10.10
2018-03-14T18:19:40.090Z,8.63
2018-03-14T18:22:06.781Z,8.93
2018-03-14T18:24:33.542Z,8.87
2018-03-14T18:27:00.288Z,8.70
2018-03-14T18:29:26.999Z,9.00
2018-03-14T18:31:53.707Z,9.83
2018-03-14T18:34:20.421Z,10.47
2018-03-14T18:36:47.129Z,9.77
2018-03-14T18:39:14.186Z,9.47
2018-03-14T18:41:40.902Z,10.23
2018-03-14T18:44:08.182Z,9.97
2018-03-14T18:46:34.861Z,9.80
2018-03-14T18:49:01.741Z,10.00
2018-03-14T18:51:28.450Z,8.97
2018-03-14T18:53:55.443Z,9.47
2018-03-14T18:56:22.129Z,10.07
2018-03-14T18:58:48.849Z,9.67
2018-03-14T19:01:15.565Z,9.60
2018-03-14T19:03:42.254Z,8.63
2018-03-14T19:06:08.933Z,9.80
2018-03-14T19:08:35.725Z,10.00
2018-03-14T19:11:02.586Z,10.27
2018-03-14T19:13:29.284Z,9.93
2018-03-14T19:15:56.020Z,11.80
2018-03-14T19:18:23.739Z,11.40
2018-03-14T19:20:50.430Z,12.20
2018-03-14T19:23:18.086Z,12.13
2018-03-14T19:25:44.824Z,12.47
2018-03-14T19:28:12.273Z,12.90
2018-03-14T19:30:39.003Z,13.07
2018-03-14T19:33:05.900Z,13.83
2018-03-14T19:35:32.605Z,13.37
2018-03-14T19:37:59.336Z,14.03
2018-03-14T19:40:26.069Z,14.40
2018-03-14T19:42:53.526Z,14.67
2018-03-14T19:45:20.233Z,16.57
2018-03-14T19:47:46.976Z,16.40
2018-03-14T19:50:13.675Z,16.50
2018-03-14T19:52:40.400Z,16.60
2018-03-14T19:55:07.112Z,17.13
2018-03-14T19:57:33.826Z,18.07
2018-03-14T20:00:00.555Z,18.67
2018-03-14T20:02:27.294Z,19.40
2018-03-14T20:04:53.995Z,18.80
2018-03-14T20:07:21.418Z,17.67
2018-03-14T20:09:49.054Z,20.93
2018-03-14T20:12:16.395Z,19.47
2018-03-14T20:14:43.134Z,20.07
2018-03-14T20:17:09.857Z,18.27
2018-03-14T20:19:36.579Z,17.07
2018-03-14T20:22:03.516Z,17.73
2018-03-14T20:24:30.392Z,19.10
2018-03-14T20:26:57.387Z,17.87
2018-03-14T20:29:24.136Z,19.20
2018-03-14T20:31:51.711Z,19.20
2018-03-14T20:34:18.436Z,17.70
2018-03-14T20:36:45.154Z,18.43
2018-03-14T20:39:11.890Z,16.60
2018-03-14T20:41:38.576Z,16.70
2018-03-14T20:44:05.818Z,15.70
2018-03-14T20:46:36.393Z,17.90
2018-03-14T20:49:03.148Z,18.00
2018-03-14T20:51:29.845Z,18.87
2018-03-14T20:53:56.593Z,17.40
2018-03-14T20:56:24.370Z,17.40
2018-03-14T20:58:51.052Z,17.03
2018-03-14T21:01:17.922Z,17.63
2018-03-14T21:03:44.627Z,18.00
2018-03-14T21:06:11.351Z,15.97
2018-03-14T21:08:38.046Z,18.90
2018-03-14T21:11:04.751Z,18.20
2018-03-14T21:13:31.466Z,17.10
2018-03-14T21:15:58.150Z,16.77
2018-03-14T21:18:24.889Z,17.50
2018-03-14T21:20:51.576Z,16.70
2018-03-14T21:23:18.513Z,17.17
2018-03-14T21:25:45.233Z,18.07
2018-03-14T21:28:11.953Z,16.50
2018-03-14T21:30:38.655Z,15.97
2018-03-14T21:33:05.363Z,20.53
2018-03-14T21:35:32.150Z,16.53
2018-03-14T21:37:58.853Z,15.87
2018-03-14T21:40:25.551Z,15.17
2018-03-14T21:42:52.369Z,15.83
2018-03-14T21:45:19.112Z,15.47
2018-03-14T21:47:45.743Z,15.27
2018-03-14T21:50:12.470Z,15.90
2018-03-14T21:52:39.199Z,16.20
2018-03-14T21:55:05.911Z,15.30
2018-03-14T21:57:32.639Z,13.97
2018-03-14T21:59:59.334Z,14.80
2018-03-14T22:02:26.118Z,14.20
2018-03-14T22:04:52.830Z,14.20
2018-03-14T22:07:19.539Z,13.43
2018-03-14T22:09:46.234Z,14.33
2018-03-14T22:12:12.909Z,11.33
2018-03-14T22:14:39.783Z,12.53
2018-03-14T22:17:06.518Z,11.73
2018-03-14T22:19:33.238Z,12.20
2018-03-14T22:21:59.936Z,13.13
2018-03-14T22:24:26.640Z,13.10
2018-03-14T22:26:53.345Z,11.63
2018-03-14T22:29:20.047Z,12.70
2018-03-14T22:31:46.777Z,13.43
2018-03-14T22:34:13.481Z,12.27
2018-03-14T22:36:40.157Z,12.13
2018-03-14T22:39:06.954Z,12.90
2018-03-14T22:41:33.706Z,12.77
2018-03-14T22:44:00.402Z,12.80
2018-03-14T22:46:27.106Z,12.43
2018-03-14T22:48:53.810Z,11.73
2018-03-14T22:51:20.606Z,11.97
2018-03-14T22:53:47.298Z,12.57
2018-03-14T22:56:14.000Z,13.73
2018-03-14T22:58:40.843Z,13.10
2018-03-14T23:01:07.554Z,12.97
2018-03-14T23:03:34.254Z,11.80
2018-03-14T23:06:00.960Z,14.03
2018-03-14T23:08:27.705Z,12.97
2018-03-14T23:10:54.404Z,12.63
2018-03-14T23:13:21.096Z,14.30
2018-03-14T23:15:47.822Z,12.83
2018-03-14T23:18:14.634Z,13.50
2018-03-14T23:20:41.381Z,14.70
2018-03-14T23:23:08.084Z,13.80
2018-03-14T23:25:34.917Z,13.83
2018-03-14T23:28:01.672Z,14.97
2018-03-14T23:30:28.543Z,14.40
2018-03-14T23:32:55.262Z,14.47
2018-03-14T23:35:21.929Z,13.70
2018-03-14T23:37:48.648Z,13.40
2018-03-14T23:40:15.330Z,14.70
2018-03-14T23:42:42.040Z,14.10
2018-03-14T23:45:08.722Z,13.67
2018-03-14T23:47:35.420Z,15.90
2018-03-14T23:50:02.144Z,15.20
2018-03-14T23:52:28.802Z,15.23
2018-03-14T23:54:55.506Z,13.27
2018-03-14T23:57:22.186Z,13.77
2018-03-14T23:59:48.902Z,14.00
